sensor_id;sensor_type;location;lat;lon;timestamp;pressure;altitude;pressure_sealevel;temperature;humidity
6096;BME280;25081;42.698;23.298;2023-11-22T00:01:10;94576.83;;;6.27;98.73
6096;BME280;25081;42.698;23.298;2023-11-22T00:03:20;94572.78;;;6.18;98.88
6096;BME280;25081;42.698;23.298;2023-11-22T00:05:30;94576.40;;;6.30;98.58
6096;BME280;25081;42.698;23.298;2023-11-22T00:07:41;94572.30;;;6.35;98.45
6096;BME280;25081;42.698;23.298;2023-11-22T00:09:51;94571.27;;;6.42;98.20
6096;BME280;25081;42.698;23.298;2023-11-22T00:12:03;94558.30;;;6.50;98.00
6096;BME280;25081;42.698;23.298;2023-11-22T00:14:14;94573.04;;;6.26;98.22
6096;BME280;25081;42.698;23.298;2023-11-22T00:16:24;94556.46;;;6.28;98.46
6096;BME280;25081;42.698;23.298;2023-11-22T00:18:35;94575.06;;;6.37;98.55
6096;BME280;25081;42.698;23.298;2023-11-22T00:20:46;94576.63;;;6.51;98.31
6096;BME280;25081;42.698;23.298;2023-11-22T00:22:57;94567.13;;;6.59;97.52
6096;BME280;25081;42.698;23.298;2023-11-22T00:25:09;94562.73;;;6.56;97.85
6096;BME280;25081;42.698;23.298;2023-11-22T00:27:19;94557.26;;;6.57;97.43
6096;BME280;25081;42.698;23.298;2023-11-22T00:29:30;94560.82;;;6.54;97.63
6096;BME280;25081;42.698;23.298;2023-11-22T00:31:40;94551.02;;;6.61;97.69
6096;BME280;25081;42.698;23.298;2023-11-22T00:33:51;94550.88;;;6.65;97.39
6096;BME280;25081;42.698;23.298;2023-11-22T00:36:01;94552.62;;;6.69;97.31
6096;BME280;25081;42.698;23.298;2023-11-22T00:38:12;94557.20;;;6.64;97.25
6096;BME280;25081;42.698;23.298;2023-11-22T00:40:22;94567.02;;;6.79;97.03
6096;BME280;25081;42.698;23.298;2023-11-22T00:42:33;94563.12;;;6.66;97.16
6096;BME280;25081;42.698;23.298;2023-11-22T00:44:43;94572.84;;;6.56;97.50
6096;BME280;25081;42.698;23.298;2023-11-22T00:46:54;94562.66;;;6.53;97.29
6096;BME280;25081;42.698;23.298;2023-11-22T00:49:04;94562.50;;;6.64;97.04
6096;BME280;25081;42.698;23.298;2023-11-22T00:51:15;94572.20;;;6.61;97.30
6096;BME280;25081;42.698;23.298;2023-11-22T00:53:25;94572.42;;;6.59;97.53
6096;BME280;25081;42.698;23.298;2023-11-22T00:55:36;94566.02;;;6.74;97.10
6096;BME280;25081;42.698;23.298;2023-11-22T00:57:46;94558.08;;;6.74;97.07
6096;BME280;25081;42.698;23.298;2023-11-22T00:59:57;94552.53;;;6.66;97.24
6096;BME280;25081;42.698;23.298;2023-11-22T01:02:07;94550.37;;;6.66;97.45
6096;BME280;25081;42.698;23.298;2023-11-22T01:04:18;94554.80;;;6.78;97.45
6096;BME280;25081;42.698;23.298;2023-11-22T01:06:29;94552.62;;;6.69;97.46
6096;BME280;25081;42.698;23.298;2023-11-22T01:08:39;94557.20;;;6.64;97.66
6096;BME280;25081;42.698;23.298;2023-11-22T01:10:50;94545.78;;;6.70;97.56
6096;BME280;25081;42.698;23.298;2023-11-22T01:13:00;94541.16;;;6.59;97.72
6096;BME280;25081;42.698;23.298;2023-11-22T01:15:12;94544.53;;;6.57;97.24
6096;BME280;25081;42.698;23.298;2023-11-22T01:17:22;94527.27;;;6.48;97.48
6096;BME280;25081;42.698;23.298;2023-11-22T01:19:33;94529.45;;;6.57;97.78
6096;BME280;25081;42.698;23.298;2023-11-22T01:21:44;94525.42;;;6.48;97.42
6096;BME280;25081;42.698;23.298;2023-11-22T01:23:54;94533.12;;;6.56;97.67
6096;BME280;25081;42.698;23.298;2023-11-22T01:26:05;94544.39;;;6.61;97.27
6096;BME280;25081;42.698;23.298;2023-11-22T01:28:15;94541.59;;;6.72;97.07
6096;BME280;25081;42.698;23.298;2023-11-22T01:30:26;94543.86;;;6.68;96.72
6096;BME280;25081;42.698;23.298;2023-11-22T01:32:36;94534.23;;;6.58;97.58
6096;BME280;25081;42.698;23.298;2023-11-22T01:34:47;94525.62;;;6.69;97.51
6096;BME280;25081;42.698;23.298;2023-11-22T01:36:58;94527.62;;;6.58;97.33
6096;BME280;25081;42.698;23.298;2023-11-22T01:39:08;94521.51;;;6.57;97.74
6096;BME280;25081;42.698;23.298;2023-11-22T01:41:19;94516.97;;;6.65;97.58
6096;BME280;25081;42.698;23.298;2023-11-22T01:43:29;94504.81;;;6.57;97.57
6096;BME280;25081;42.698;23.298;2023-11-22T01:45:40;94504.89;;;6.59;97.37
6096;BME280;25081;42.698;23.298;2023-11-22T01:47:51;94499.08;;;6.60;97.00
6096;BME280;25081;42.698;23.298;2023-11-22T01:50:01;94499.41;;;6.39;97.61
6096;BME280;25081;42.698;23.298;2023-11-22T01:52:12;94497.78;;;6.53;97.48
6096;BME280;25081;42.698;23.298;2023-11-22T01:54:22;94515.64;;;6.49;97.46
6096;BME280;25081;42.698;23.298;2023-11-22T01:56:33;94507.51;;;6.66;97.08
6096;BME280;25081;42.698;23.298;2023-11-22T01:58:43;94523.02;;;6.56;97.16
6096;BME280;25081;42.698;23.298;2023-11-22T02:00:54;94518.70;;;6.68;97.06
6096;BME280;25081;42.698;23.298;2023-11-22T02:03:04;94509.75;;;6.63;96.54
6096;BME280;25081;42.698;23.298;2023-11-22T02:05:15;94519.16;;;6.58;96.87
6096;BME280;25081;42.698;23.298;2023-11-22T02:07:26;94509.07;;;6.74;96.53
6096;BME280;25081;42.698;23.298;2023-11-22T02:09:36;94505.67;;;6.67;96.13
6096;BME280;25081;42.698;23.298;2023-11-22T02:11:47;94502.22;;;6.66;96.61
6096;BME280;25081;42.698;23.298;2023-11-22T02:13:58;94494.05;;;6.68;96.65
6096;BME280;25081;42.698;23.298;2023-11-22T02:16:08;94491.65;;;6.59;97.01
6096;BME280;25081;42.698;23.298;2023-11-22T02:18:18;94496.41;;;6.44;97.48
6096;BME280;25081;42.698;23.298;2023-11-22T02:20:30;94494.56;;;6.67;97.09
6096;BME280;25081;42.698;23.298;2023-11-22T02:22:45;94488.05;;;6.63;96.24
6096;BME280;25081;42.698;23.298;2023-11-22T02:24:55;94487.59;;;6.57;96.42
6096;BME280;25081;42.698;23.298;2023-11-22T02:27:06;94490.70;;;6.63;96.45
6096;BME280;25081;42.698;23.298;2023-11-22T02:29:16;94492.46;;;6.60;96.45
6096;BME280;25081;42.698;23.298;2023-11-22T02:31:27;94497.02;;;6.62;96.59
6096;BME280;25081;42.698;23.298;2023-11-22T02:33:37;94500.48;;;6.63;96.76
6096;BME280;25081;42.698;23.298;2023-11-22T02:35:48;94505.28;;;6.79;96.19
6096;BME280;25081;42.698;23.298;2023-11-22T02:37:59;94508.34;;;6.60;96.70
6096;BME280;25081;42.698;23.298;2023-11-22T02:40:12;94501.22;;;6.60;96.33
6096;BME280;25081;42.698;23.298;2023-11-22T02:42:21;94491.30;;;6.65;96.17
6096;BME280;25081;42.698;23.298;2023-11-22T02:44:31;94497.45;;;6.59;96.75
6096;BME280;25081;42.698;23.298;2023-11-22T02:46:42;94489.27;;;6.45;97.04
6096;BME280;25081;42.698;23.298;2023-11-22T02:48:53;94486.52;;;6.49;97.29
6096;BME280;25081;42.698;23.298;2023-11-22T02:51:04;94494.16;;;6.64;97.00
6096;BME280;25081;42.698;23.298;2023-11-22T02:53:14;94489.97;;;6.65;96.08
6096;BME280;25081;42.698;23.298;2023-11-22T02:55:25;94496.48;;;6.69;96.21
6096;BME280;25081;42.698;23.298;2023-11-22T02:57:35;94491.34;;;6.74;96.48
6096;BME280;25081;42.698;23.298;2023-11-22T02:59:46;94499.05;;;6.67;96.62
6096;BME280;25081;42.698;23.298;2023-11-22T03:01:57;94506.56;;;6.70;96.46
6096;BME280;25081;42.698;23.298;2023-11-22T03:04:08;94495.83;;;6.74;96.30
6096;BME280;25081;42.698;23.298;2023-11-22T03:06:18;94498.54;;;6.67;96.53
6096;BME280;25081;42.698;23.298;2023-11-22T03:08:28;94495.61;;;6.75;96.13
6096;BME280;25081;42.698;23.298;2023-11-22T03:10:39;94496.56;;;6.72;96.31
6096;BME280;25081;42.698;23.298;2023-11-22T03:12:49;94499.94;;;6.70;96.72
6096;BME280;25081;42.698;23.298;2023-11-22T03:15:00;94498.94;;;6.64;96.96
6096;BME280;25081;42.698;23.298;2023-11-22T03:17:11;94503.56;;;6.59;96.39
6096;BME280;25081;42.698;23.298;2023-11-22T03:19:21;94505.73;;;6.53;96.48
6096;BME280;25081;42.698;23.298;2023-11-22T03:21:32;94502.97;;;6.57;96.75
6096;BME280;25081;42.698;23.298;2023-11-22T03:23:42;94515.66;;;6.42;96.91
6096;BME280;25081;42.698;23.298;2023-11-22T03:25:53;94501.38;;;6.50;97.00
6096;BME280;25081;42.698;23.298;2023-11-22T03:28:04;94515.13;;;6.49;97.08
6096;BME280;25081;42.698;23.298;2023-11-22T03:30:15;94515.75;;;6.45;96.91
6096;BME280;25081;42.698;23.298;2023-11-22T03:32:25;94512.88;;;6.46;97.21
6096;BME280;25081;42.698;23.298;2023-11-22T03:34:36;94512.27;;;6.51;97.17
6096;BME280;25081;42.698;23.298;2023-11-22T03:36:47;94513.64;;;6.60;96.88
6096;BME280;25081;42.698;23.298;2023-11-22T03:38:57;94509.12;;;6.67;96.66
6096;BME280;25081;42.698;23.298;2023-11-22T03:41:08;94501.94;;;6.74;96.25
6096;BME280;25081;42.698;23.298;2023-11-22T03:43:18;94493.02;;;6.69;96.48
6096;BME280;25081;42.698;23.298;2023-11-22T03:45:29;94499.72;;;6.71;96.50
6096;BME280;25081;42.698;23.298;2023-11-22T03:47:39;94507.38;;;6.70;96.63
6096;BME280;25081;42.698;23.298;2023-11-22T03:49:50;94502.67;;;6.72;96.66
6096;BME280;25081;42.698;23.298;2023-11-22T03:52:00;94499.20;;;6.72;96.65
6096;BME280;25081;42.698;23.298;2023-11-22T03:54:11;94494.34;;;6.69;96.98
6096;BME280;25081;42.698;23.298;2023-11-22T03:56:21;94488.86;;;6.64;97.30
6096;BME280;25081;42.698;23.298;2023-11-22T03:58:32;94491.76;;;7.03;96.26
6096;BME280;25081;42.698;23.298;2023-11-22T04:00:43;94502.09;;;6.86;95.94
6096;BME280;25081;42.698;23.298;2023-11-22T04:02:53;94499.05;;;6.98;96.05
6096;BME280;25081;42.698;23.298;2023-11-22T04:05:05;94504.41;;;6.85;95.56
6096;BME280;25081;42.698;23.298;2023-11-22T04:07:15;94505.50;;;6.77;96.05
6096;BME280;25081;42.698;23.298;2023-11-22T04:09:26;94506.78;;;6.68;96.52
6096;BME280;25081;42.698;23.298;2023-11-22T04:11:36;94512.89;;;6.69;96.58
6096;BME280;25081;42.698;23.298;2023-11-22T04:13:47;94517.78;;;6.65;96.75
6096;BME280;25081;42.698;23.298;2023-11-22T04:15:57;94521.72;;;6.72;96.61
6096;BME280;25081;42.698;23.298;2023-11-22T04:18:08;94520.13;;;6.86;96.20
6096;BME280;25081;42.698;23.298;2023-11-22T04:20:19;94523.39;;;6.82;95.70
6096;BME280;25081;42.698;23.298;2023-11-22T04:22:29;94532.91;;;6.74;96.15
6096;BME280;25081;42.698;23.298;2023-11-22T04:24:40;94551.23;;;6.75;96.34
6096;BME280;25081;42.698;23.298;2023-11-22T04:26:50;94546.47;;;6.91;96.21
6096;BME280;25081;42.698;23.298;2023-11-22T04:29:01;94558.80;;;6.72;96.20
6096;BME280;25081;42.698;23.298;2023-11-22T04:31:11;94554.97;;;6.83;96.12
6096;BME280;25081;42.698;23.298;2023-11-22T04:33:22;94542.34;;;6.85;95.80
6096;BME280;25081;42.698;23.298;2023-11-22T04:35:32;94557.23;;;6.80;96.33
6096;BME280;25081;42.698;23.298;2023-11-22T04:37:44;94551.91;;;6.64;96.98
6096;BME280;25081;42.698;23.298;2023-11-22T04:39:54;94559.80;;;6.77;97.00
6096;BME280;25081;42.698;23.298;2023-11-22T04:42:06;94547.48;;;6.74;96.30
6096;BME280;25081;42.698;23.298;2023-11-22T04:44:16;94552.72;;;6.65;96.78
6096;BME280;25081;42.698;23.298;2023-11-22T04:46:27;94555.42;;;6.58;96.93
6096;BME280;25081;42.698;23.298;2023-11-22T04:48:37;94555.86;;;6.71;96.91
6096;BME280;25081;42.698;23.298;2023-11-22T04:50:48;94552.45;;;6.79;96.42
6096;BME280;25081;42.698;23.298;2023-11-22T04:52:59;94569.08;;;6.77;96.63
6096;BME280;25081;42.698;23.298;2023-11-22T04:55:10;94567.45;;;6.76;96.46
6096;BME280;25081;42.698;23.298;2023-11-22T04:57:21;94582.32;;;6.77;96.67
6096;BME280;25081;42.698;23.298;2023-11-22T04:59:31;94589.16;;;6.92;96.14
6096;BME280;25081;42.698;23.298;2023-11-22T05:01:42;94594.24;;;6.93;96.33
6096;BME280;25081;42.698;23.298;2023-11-22T05:03:52;94593.81;;;6.80;96.48
6096;BME280;25081;42.698;23.298;2023-11-22T05:06:03;94601.30;;;6.90;96.34
6096;BME280;25081;42.698;23.298;2023-11-22T05:08:14;94597.59;;;6.98;96.26
6096;BME280;25081;42.698;23.298;2023-11-22T05:10:24;94612.66;;;6.81;96.45
6096;BME280;25081;42.698;23.298;2023-11-22T05:12:35;94613.70;;;6.74;96.84
6096;BME280;25081;42.698;23.298;2023-11-22T05:14:47;94615.38;;;6.84;96.59
6096;BME280;25081;42.698;23.298;2023-11-22T05:16:57;94624.81;;;6.73;96.47
6096;BME280;25081;42.698;23.298;2023-11-22T05:19:08;94618.84;;;6.84;96.15
6096;BME280;25081;42.698;23.298;2023-11-22T05:21:18;94614.84;;;6.91;96.42
6096;BME280;25081;42.698;23.298;2023-11-22T05:23:29;94625.34;;;6.95;96.59
6096;BME280;25081;42.698;23.298;2023-11-22T05:25:39;94613.44;;;7.04;96.57
6096;BME280;25081;42.698;23.298;2023-11-22T05:27:50;94616.55;;;6.95;96.13
6096;BME280;25081;42.698;23.298;2023-11-22T05:30:00;94625.73;;;6.76;96.70
6096;BME280;25081;42.698;23.298;2023-11-22T05:32:11;94628.84;;;6.82;97.24
6096;BME280;25081;42.698;23.298;2023-11-22T05:34:21;94639.94;;;6.88;97.48
6096;BME280;25081;42.698;23.298;2023-11-22T05:36:32;94641.48;;;7.03;97.18
6096;BME280;25081;42.698;23.298;2023-11-22T05:38:42;94644.51;;;6.91;98.04
6096;BME280;25081;42.698;23.298;2023-11-22T05:40:53;94653.16;;;6.95;98.92
6096;BME280;25081;42.698;23.298;2023-11-22T05:43:04;94661.26;;;7.07;98.14
6096;BME280;25081;42.698;23.298;2023-11-22T05:45:14;94653.82;;;7.06;98.11
6096;BME280;25081;42.698;23.298;2023-11-22T05:47:25;94650.55;;;7.04;98.18
6096;BME280;25081;42.698;23.298;2023-11-22T05:49:35;94649.39;;;7.16;98.74
6096;BME280;25081;42.698;23.298;2023-11-22T05:51:46;94652.50;;;7.22;98.60
6096;BME280;25081;42.698;23.298;2023-11-22T05:53:56;94660.39;;;7.13;98.50
6096;BME280;25081;42.698;23.298;2023-11-22T05:56:08;94661.20;;;6.98;97.97
6096;BME280;25081;42.698;23.298;2023-11-22T05:58:19;94660.77;;;7.01;98.70
6096;BME280;25081;42.698;23.298;2023-11-22T06:00:29;94667.21;;;7.18;99.02
6096;BME280;25081;42.698;23.298;2023-11-22T06:02:39;94673.05;;;7.11;99.86
6096;BME280;25081;42.698;23.298;2023-11-22T06:04:50;94680.64;;;7.01;99.93
6096;BME280;25081;42.698;23.298;2023-11-22T06:07:01;94684.53;;;6.98;100.00
6096;BME280;25081;42.698;23.298;2023-11-22T06:09:11;94683.22;;;6.92;99.49
6096;BME280;25081;42.698;23.298;2023-11-22T06:11:22;94686.07;;;6.97;99.52
6096;BME280;25081;42.698;23.298;2023-11-22T06:13:32;94692.84;;;7.08;99.80
6096;BME280;25081;42.698;23.298;2023-11-22T06:15:43;94694.34;;;7.13;99.76
6096;BME280;25081;42.698;23.298;2023-11-22T06:17:53;94692.03;;;7.08;99.47
6096;BME280;25081;42.698;23.298;2023-11-22T06:20:06;94699.55;;;7.11;100.00
6096;BME280;25081;42.698;23.298;2023-11-22T06:22:16;94702.64;;;7.08;100.00
6096;BME280;25081;42.698;23.298;2023-11-22T06:24:27;94709.92;;;7.19;99.79
6096;BME280;25081;42.698;23.298;2023-11-22T06:26:37;94709.91;;;7.26;99.62
6096;BME280;25081;42.698;23.298;2023-11-22T06:28:48;94719.13;;;7.32;99.88
6096;BME280;25081;42.698;23.298;2023-11-22T06:30:59;94719.27;;;7.28;99.85
6096;BME280;25081;42.698;23.298;2023-11-22T06:33:09;94710.66;;;7.17;99.44
6096;BME280;25081;42.698;23.298;2023-11-22T06:35:20;94709.63;;;6.96;99.59
6096;BME280;25081;42.698;23.298;2023-11-22T06:37:31;94708.66;;;7.06;100.00
6096;BME280;25081;42.698;23.298;2023-11-22T06:39:41;94714.80;;;7.22;100.00
6096;BME280;25081;42.698;23.298;2023-11-22T06:41:52;94721.83;;;7.26;100.00
6096;BME280;25081;42.698;23.298;2023-11-22T06:44:03;94723.58;;;7.45;100.00
6096;BME280;25081;42.698;23.298;2023-11-22T06:46:13;94732.86;;;7.45;100.00
6096;BME280;25081;42.698;23.298;2023-11-22T06:48:24;94733.23;;;7.49;100.00
6096;BME280;25081;42.698;23.298;2023-11-22T06:50:34;94735.94;;;7.58;100.00
6096;BME280;25081;42.698;23.298;2023-11-22T06:52:45;94740.87;;;7.54;100.00
6096;BME280;25081;42.698;23.298;2023-11-22T06:54:56;94731.69;;;7.50;99.43
6096;BME280;25081;42.698;23.298;2023-11-22T06:57:06;94737.30;;;7.29;100.00
6096;BME280;25081;42.698;23.298;2023-11-22T06:59:17;94738.33;;;7.28;100.00
6096;BME280;25081;42.698;23.298;2023-11-22T07:01:27;94738.85;;;7.27;99.63
6096;BME280;25081;42.698;23.298;2023-11-22T07:03:38;94735.17;;;7.28;100.00
6096;BME280;25081;42.698;23.298;2023-11-22T07:05:49;94736.34;;;7.16;100.00
6096;BME280;25081;42.698;23.298;2023-11-22T07:08:00;94747.27;;;7.33;100.00
6096;BME280;25081;42.698;23.298;2023-11-22T07:10:11;94753.50;;;7.52;100.00
6096;BME280;25081;42.698;23.298;2023-11-22T07:12:22;94756.43;;;7.60;100.00
6096;BME280;25081;42.698;23.298;2023-11-22T07:14:33;94764.25;;;7.48;100.00
6096;BME280;25081;42.698;23.298;2023-11-22T07:16:43;94761.00;;;7.46;100.00
6096;BME280;25081;42.698;23.298;2023-11-22T07:18:54;94760.65;;;7.52;100.00
6096;BME280;25081;42.698;23.298;2023-11-22T07:21:05;94761.92;;;7.65;100.00
6096;BME280;25081;42.698;23.298;2023-11-22T07:23:15;94764.41;;;7.75;100.00
6096;BME280;25081;42.698;23.298;2023-11-22T07:25:26;94761.52;;;7.84;100.00
6096;BME280;25081;42.698;23.298;2023-11-22T07:27:36;94756.09;;;7.81;100.00
6096;BME280;25081;42.698;23.298;2023-11-22T07:29:47;94764.68;;;7.83;100.00
6096;BME280;25081;42.698;23.298;2023-11-22T07:31:58;94766.20;;;7.66;100.00
6096;BME280;25081;42.698;23.298;2023-11-22T07:34:08;94767.20;;;7.87;99.28
6096;BME280;25081;42.698;23.298;2023-11-22T07:36:19;94769.38;;;7.97;98.28
6096;BME280;25081;42.698;23.298;2023-11-22T07:38:29;94774.25;;;8.00;98.77
6096;BME280;25081;42.698;23.298;2023-11-22T07:40:40;94773.37;;;8.13;98.86
6096;BME280;25081;42.698;23.298;2023-11-22T07:42:51;94775.17;;;8.03;99.33
6096;BME280;25081;42.698;23.298;2023-11-22T07:45:01;94776.83;;;7.97;100.00
6096;BME280;25081;42.698;23.298;2023-11-22T07:47:12;94774.83;;;7.93;100.00
6096;BME280;25081;42.698;23.298;2023-11-22T07:49:22;94783.34;;;7.86;100.00
6096;BME280;25081;42.698;23.298;2023-11-22T07:51:33;94782.44;;;7.98;100.00
6096;BME280;25081;42.698;23.298;2023-11-22T07:53:44;94775.98;;;8.03;100.00
6096;BME280;25081;42.698;23.298;2023-11-22T07:55:54;94775.25;;;8.06;100.00
6096;BME280;25081;42.698;23.298;2023-11-22T07:58:05;94776.36;;;8.07;100.00
6096;BME280;25081;42.698;23.298;2023-11-22T08:00:18;94783.29;;;8.08;100.00
6096;BME280;25081;42.698;23.298;2023-11-22T08:02:29;94786.34;;;7.96;100.00
6096;BME280;25081;42.698;23.298;2023-11-22T08:04:39;94782.03;;;8.01;100.00
6096;BME280;25081;42.698;23.298;2023-11-22T08:06:50;94789.19;;;8.10;100.00
6096;BME280;25081;42.698;23.298;2023-11-22T08:09:02;94786.39;;;8.21;100.00
6096;BME280;25081;42.698;23.298;2023-11-22T08:11:12;94781.11;;;8.30;100.00
6096;BME280;25081;42.698;23.298;2023-11-22T08:13:25;94783.96;;;8.28;100.00
6096;BME280;25081;42.698;23.298;2023-11-22T08:15:35;94779.86;;;8.32;100.00
6096;BME280;25081;42.698;23.298;2023-11-22T08:17:46;94786.42;;;8.46;99.42
6096;BME280;25081;42.698;23.298;2023-11-22T08:19:57;94792.20;;;8.52;98.81
6096;BME280;25081;42.698;23.298;2023-11-22T08:22:08;94787.61;;;8.34;98.43
6096;BME280;25081;42.698;23.298;2023-11-22T08:24:19;94785.13;;;8.39;98.56
6096;BME280;25081;42.698;23.298;2023-11-22T08:26:29;94789.94;;;8.24;97.71
6096;BME280;25081;42.698;23.298;2023-11-22T08:28:40;94787.27;;;8.24;97.83
6096;BME280;25081;42.698;23.298;2023-11-22T08:30:50;94791.52;;;8.31;97.99
6096;BME280;25081;42.698;23.298;2023-11-22T08:33:01;94800.63;;;8.26;98.14
6096;BME280;25081;42.698;23.298;2023-11-22T08:35:11;94798.93;;;8.23;98.23
6096;BME280;25081;42.698;23.298;2023-11-22T08:37:22;94803.20;;;8.24;98.81
6096;BME280;25081;42.698;23.298;2023-11-22T08:39:32;94806.59;;;8.38;99.72
6096;BME280;25081;42.698;23.298;2023-11-22T08:41:43;94807.34;;;8.36;100.00
6096;BME280;25081;42.698;23.298;2023-11-22T08:43:53;94811.33;;;8.29;100.00
6096;BME280;25081;42.698;23.298;2023-11-22T08:46:05;94811.44;;;8.31;100.00
6096;BME280;25081;42.698;23.298;2023-11-22T08:48:15;94805.45;;;8.43;100.00
6096;BME280;25081;42.698;23.298;2023-11-22T08:50:26;94802.84;;;8.36;100.00
6096;BME280;25081;42.698;23.298;2023-11-22T08:52:37;94799.84;;;8.42;100.00
6096;BME280;25081;42.698;23.298;2023-11-22T08:54:47;94798.22;;;8.41;99.54
6096;BME280;25081;42.698;23.298;2023-11-22T08:56:58;94799.33;;;8.42;98.90
6096;BME280;25081;42.698;23.298;2023-11-22T08:59:08;94800.44;;;8.44;99.33
6096;BME280;25081;42.698;23.298;2023-11-22T09:01:19;94805.90;;;8.49;99.23
6096;BME280;25081;42.698;23.298;2023-11-22T09:03:30;94815.74;;;8.57;98.11
6096;BME280;25081;42.698;23.298;2023-11-22T09:05:40;94808.88;;;8.84;96.98
6096;BME280;25081;42.698;23.298;2023-11-22T09:07:51;94812.42;;;8.87;97.06
6096;BME280;25081;42.698;23.298;2023-11-22T09:10:01;94817.03;;;8.89;96.42
6096;BME280;25081;42.698;23.298;2023-11-22T09:12:14;94834.00;;;8.97;96.72
6096;BME280;25081;42.698;23.298;2023-11-22T09:14:25;94831.13;;;8.89;97.18
6096;BME280;25081;42.698;23.298;2023-11-22T09:16:37;94830.27;;;8.71;97.56
6096;BME280;25081;42.698;23.298;2023-11-22T09:18:48;94832.30;;;8.94;97.29
6096;BME280;25081;42.698;23.298;2023-11-22T09:20:58;94836.09;;;8.70;98.02
6096;BME280;25081;42.698;23.298;2023-11-22T09:23:09;94842.81;;;8.73;98.55
6096;BME280;25081;42.698;23.298;2023-11-22T09:25:21;94848.44;;;8.58;99.37
6096;BME280;25081;42.698;23.298;2023-11-22T09:27:30;94853.08;;;8.38;100.00
6096;BME280;25081;42.698;23.298;2023-11-22T09:29:41;94843.83;;;8.47;100.00
6096;BME280;25081;42.698;23.298;2023-11-22T09:31:51;94838.23;;;8.71;99.89
6096;BME280;25081;42.698;23.298;2023-11-22T09:34:02;94836.25;;;8.75;99.17
6096;BME280;25081;42.698;23.298;2023-11-22T09:36:13;94831.36;;;8.88;98.48
6096;BME280;25081;42.698;23.298;2023-11-22T09:38:23;94838.07;;;8.91;97.22
6096;BME280;25081;42.698;23.298;2023-11-22T09:40:34;94840.28;;;8.94;97.46
6096;BME280;25081;42.698;23.298;2023-11-22T09:42:44;94842.59;;;8.99;97.11
6096;BME280;25081;42.698;23.298;2023-11-22T09:44:55;94849.14;;;8.97;97.38
6096;BME280;25081;42.698;23.298;2023-11-22T09:47:06;94850.33;;;8.92;97.91
6096;BME280;25081;42.698;23.298;2023-11-22T09:49:20;94842.30;;;8.73;97.53
6096;BME280;25081;42.698;23.298;2023-11-22T09:51:30;94842.77;;;8.79;97.24
6096;BME280;25081;42.698;23.298;2023-11-22T09:53:43;94840.54;;;8.51;98.36
6096;BME280;25081;42.698;23.298;2023-11-22T09:55:51;94845.11;;;8.69;98.19
6096;BME280;25081;42.698;23.298;2023-11-22T09:58:02;94837.58;;;9.00;96.63
6096;BME280;25081;42.698;23.298;2023-11-22T10:00:14;94832.72;;;9.25;96.12
6096;BME280;25081;42.698;23.298;2023-11-22T10:02:24;94829.98;;;9.13;95.75
6096;BME280;25081;42.698;23.298;2023-11-22T10:04:35;94825.84;;;9.35;94.97
6096;BME280;25081;42.698;23.298;2023-11-22T10:06:46;94826.36;;;9.35;94.77
6096;BME280;25081;42.698;23.298;2023-11-22T10:08:56;94831.23;;;9.10;94.98
6096;BME280;25081;42.698;23.298;2023-11-22T10:11:07;94824.94;;;9.05;95.96
6096;BME280;25081;42.698;23.298;2023-11-22T10:13:17;94827.54;;;9.11;94.41
6096;BME280;25081;42.698;23.298;2023-11-22T10:15:29;94830.63;;;8.99;94.97
6096;BME280;25081;42.698;23.298;2023-11-22T10:17:40;94830.80;;;9.32;95.07
6096;BME280;25081;42.698;23.298;2023-11-22T10:19:51;94822.31;;;9.41;94.20
6096;BME280;25081;42.698;23.298;2023-11-22T10:22:05;94817.95;;;9.65;93.07
6096;BME280;25081;42.698;23.298;2023-11-22T10:24:15;94825.48;;;9.68;91.60
6096;BME280;25081;42.698;23.298;2023-11-22T10:26:26;94825.41;;;9.75;91.50
6096;BME280;25081;42.698;23.298;2023-11-22T10:28:38;94834.73;;;9.66;91.65
6096;BME280;25081;42.698;23.298;2023-11-22T10:30:48;94831.40;;;9.43;92.21
6096;BME280;25081;42.698;23.298;2023-11-22T10:32:59;94826.76;;;9.48;93.20
6096;BME280;25081;42.698;23.298;2023-11-22T10:35:10;94827.68;;;9.81;92.15
6096;BME280;25081;42.698;23.298;2023-11-22T10:37:20;94826.27;;;9.96;91.19
6096;BME280;25081;42.698;23.298;2023-11-22T10:39:31;94828.70;;;9.89;90.87
6096;BME280;25081;42.698;23.298;2023-11-22T10:41:41;94826.32;;;9.99;91.82
6096;BME280;25081;42.698;23.298;2023-11-22T10:43:52;94825.51;;;9.98;92.45
6096;BME280;25081;42.698;23.298;2023-11-22T10:46:05;94831.94;;;10.00;92.00
6096;BME280;25081;42.698;23.298;2023-11-22T10:48:15;94832.73;;;10.10;91.93
6096;BME280;25081;42.698;23.298;2023-11-22T10:50:26;94837.08;;;10.13;92.72
6096;BME280;25081;42.698;23.298;2023-11-22T10:52:37;94834.66;;;10.02;92.45
6096;BME280;25081;42.698;23.298;2023-11-22T10:54:49;94837.08;;;9.65;93.41
6096;BME280;25081;42.698;23.298;2023-11-22T10:56:59;94834.05;;;9.70;92.30
6096;BME280;25081;42.698;23.298;2023-11-22T10:59:13;94832.66;;;9.68;91.56
6096;BME280;25081;42.698;23.298;2023-11-22T11:01:23;94832.08;;;9.66;92.36
6096;BME280;25081;42.698;23.298;2023-11-22T11:03:34;94834.13;;;9.64;92.41
6096;BME280;25081;42.698;23.298;2023-11-22T11:05:44;94835.67;;;9.81;91.75
6096;BME280;25081;42.698;23.298;2023-11-22T11:07:56;94825.30;;;9.91;92.13
6096;BME280;25081;42.698;23.298;2023-11-22T11:10:07;94832.73;;;10.10;92.38
6096;BME280;25081;42.698;23.298;2023-11-22T11:12:17;94829.08;;;10.13;91.06
6096;BME280;25081;42.698;23.298;2023-11-22T11:14:28;94830.88;;;10.10;90.92
6096;BME280;25081;42.698;23.298;2023-11-22T11:16:39;94829.14;;;10.04;90.72
6096;BME280;25081;42.698;23.298;2023-11-22T11:18:50;94832.09;;;10.05;91.60
6096;BME280;25081;42.698;23.298;2023-11-22T11:21:04;94835.83;;;10.16;91.04
6096;BME280;25081;42.698;23.298;2023-11-22T11:23:14;94830.36;;;10.11;90.43
6096;BME280;25081;42.698;23.298;2023-11-22T11:25:25;94831.45;;;10.12;90.79
6096;BME280;25081;42.698;23.298;2023-11-22T11:27:35;94834.27;;;10.17;90.86
6096;BME280;25081;42.698;23.298;2023-11-22T11:29:45;94840.14;;;10.08;91.42
6096;BME280;25081;42.698;23.298;2023-11-22T11:31:56;94837.69;;;10.15;91.03
6096;BME280;25081;42.698;23.298;2023-11-22T11:34:07;94825.57;;;10.01;91.28
6096;BME280;25081;42.698;23.298;2023-11-22T11:36:22;94826.77;;;10.05;92.36
6096;BME280;25081;42.698;23.298;2023-11-22T11:38:34;94828.50;;;10.11;92.41